Decoded Metar for KSTK (STERLING in CO, USA) (IATA:STK) | Meteo·Mobile Aviation Weather
aviador You're here:

KSTK Decoded Metar

STERLING in CO, USA
Report Time2019-06-18 15:20:00
UTC Time2019-06-18 15:30:58
Flight Rules mvfr MVFR
Wind060° at 05 kt
W.Decomp.*RWY 03: 4.6 kt HW 1.9 kt RCW
RWY 33: 0.7 kt HW 5.0 kt RCW
Visibility9999 m
Phenomena:N/A
Clouds:Scattered 009 Hf
Overcast 014 Hf
Expected CloudBase > 800 ft AGL from Temp-Dew spread
Ceiling1,400 ft
Temp16°C (ISA +9)
Dew Point14°C (88% RH)
AAT15.5°C
QNH1018 hPa
Density Alt5,154 ft
Elevation4,039 ft
Report Wrong Elevation
Raw Report
KSTK 181520Z AUTO 06005KT 10SM SCT009 OVC014 16/14 A3006 RMK
AO2=

Extra information for KSTK:More info

Metar Taf Metar & Taf Last 4 Metars F.Rules Stats Wind Profile Meteogram Temp Stats Airport Information Weather charts Add Link Nearby VenuesMetar ALERT Operation Metar Decoded Social comments

AIRNAV info for KSTK